sensor_id;sensor_type;location;lat;lon;timestamp;temperature;humidity
68177;DHT22;56478;50.982;7.032;2023-06-26T00:01:59;24.08;56.34
68177;DHT22;56478;50.982;7.032;2023-06-26T00:04:24;24.04;56.87
68177;DHT22;56478;50.982;7.032;2023-06-26T00:06:50;24.01;57.15
68177;DHT22;56478;50.982;7.032;2023-06-26T00:09:16;23.97;56.23
68177;DHT22;56478;50.982;7.032;2023-06-26T00:11:41;23.94;56.19
68177;DHT22;56478;50.982;7.032;2023-06-26T00:14:07;23.94;57.19
68177;DHT22;56478;50.982;7.032;2023-06-26T00:16:32;23.88;57.40
68177;DHT22;56478;50.982;7.032;2023-06-26T00:18:58;23.84;58.11
68177;DHT22;56478;50.982;7.032;2023-06-26T00:21:26;23.81;56.93
68177;DHT22;56478;50.982;7.032;2023-06-26T00:23:52;23.74;57.78
68177;DHT22;56478;50.982;7.032;2023-06-26T00:26:18;23.63;58.67
68177;DHT22;56478;50.982;7.032;2023-06-26T00:28:43;23.60;58.86
68177;DHT22;56478;50.982;7.032;2023-06-26T00:31:09;23.53;59.46
68177;DHT22;56478;50.982;7.032;2023-06-26T00:33:35;23.49;60.11
68177;DHT22;56478;50.982;7.032;2023-06-26T00:36:00;23.49;58.73
68177;DHT22;56478;50.982;7.032;2023-06-26T00:38:26;23.49;58.25
68177;DHT22;56478;50.982;7.032;2023-06-26T00:40:52;23.49;59.56
68177;DHT22;56478;50.982;7.032;2023-06-26T00:43:17;23.45;59.85
68177;DHT22;56478;50.982;7.032;2023-06-26T00:45:43;23.37;58.79
68177;DHT22;56478;50.982;7.032;2023-06-26T00:48:10;23.37;58.98
68177;DHT22;56478;50.982;7.032;2023-06-26T00:50:37;23.31;59.42
68177;DHT22;56478;50.982;7.032;2023-06-26T00:53:03;23.34;58.29
68177;DHT22;56478;50.982;7.032;2023-06-26T00:55:29;23.35;59.22
68177;DHT22;56478;50.982;7.032;2023-06-26T00:57:55;23.29;59.62
68177;DHT22;56478;50.982;7.032;2023-06-26T01:00:21;23.22;59.47
68177;DHT22;56478;50.982;7.032;2023-06-26T01:02:47;23.22;59.74
68177;DHT22;56478;50.982;7.032;2023-06-26T01:05:13;23.21;60.11
68177;DHT22;56478;50.982;7.032;2023-06-26T01:07:48;23.08;59.90
68177;DHT22;56478;50.982;7.032;2023-06-26T01:10:13;23.00;60.38
68177;DHT22;56478;50.982;7.032;2023-06-26T01:12:39;22.90;60.74
68177;DHT22;56478;50.982;7.032;2023-06-26T01:15:05;22.90;59.29
68177;DHT22;56478;50.982;7.032;2023-06-26T01:17:31;22.91;60.30
68177;DHT22;56478;50.982;7.032;2023-06-26T01:19:59;22.86;60.92
68177;DHT22;56478;50.982;7.032;2023-06-26T01:22:48;22.77;61.21
68177;DHT22;56478;50.982;7.032;2023-06-26T01:28:04;22.62;61.97
68177;DHT22;56478;50.982;7.032;2023-06-26T01:30:32;22.56;61.23
68177;DHT22;56478;50.982;7.032;2023-06-26T01:32:58;22.56;61.52
68177;DHT22;56478;50.982;7.032;2023-06-26T01:35:25;22.52;61.64
68177;DHT22;56478;50.982;7.032;2023-06-26T01:37:51;22.51;61.64
68177;DHT22;56478;50.982;7.032;2023-06-26T01:40:17;22.45;61.72
68177;DHT22;56478;50.982;7.032;2023-06-26T01:42:43;22.44;62.63
68177;DHT22;56478;50.982;7.032;2023-06-26T01:45:27;22.41;62.75
68177;DHT22;56478;50.982;7.032;2023-06-26T01:47:55;22.38;62.17
68177;DHT22;56478;50.982;7.032;2023-06-26T01:50:24;22.34;62.08
68177;DHT22;56478;50.982;7.032;2023-06-26T01:55:36;22.29;62.45
68177;DHT22;56478;50.982;7.032;2023-06-26T01:58:05;22.25;62.65
68177;DHT22;56478;50.982;7.032;2023-06-26T02:00:32;22.24;61.39
68177;DHT22;56478;50.982;7.032;2023-06-26T02:02:58;22.21;62.09
68177;DHT22;56478;50.982;7.032;2023-06-26T02:05:23;22.21;61.72
68177;DHT22;56478;50.982;7.032;2023-06-26T02:07:49;22.17;61.14
68177;DHT22;56478;50.982;7.032;2023-06-26T02:10:14;22.12;62.54
68177;DHT22;56478;50.982;7.032;2023-06-26T02:12:40;22.12;62.43
68177;DHT22;56478;50.982;7.032;2023-06-26T02:15:06;22.11;63.21
68177;DHT22;56478;50.982;7.032;2023-06-26T02:17:32;22.03;63.47
68177;DHT22;56478;50.982;7.032;2023-06-26T02:19:58;21.97;63.43
68177;DHT22;56478;50.982;7.032;2023-06-26T02:22:24;21.97;64.37
68177;DHT22;56478;50.982;7.032;2023-06-26T02:24:49;21.93;63.96
68177;DHT22;56478;50.982;7.032;2023-06-26T02:27:15;21.92;63.48
68177;DHT22;56478;50.982;7.032;2023-06-26T02:29:41;21.87;63.55
68177;DHT22;56478;50.982;7.032;2023-06-26T02:32:07;21.94;63.31
68177;DHT22;56478;50.982;7.032;2023-06-26T02:34:33;21.96;63.85
68177;DHT22;56478;50.982;7.032;2023-06-26T02:36:58;21.90;64.09
68177;DHT22;56478;50.982;7.032;2023-06-26T02:39:26;21.83;63.99
68177;DHT22;56478;50.982;7.032;2023-06-26T02:41:51;21.83;63.92
68177;DHT22;56478;50.982;7.032;2023-06-26T02:44:17;21.82;64.82
68177;DHT22;56478;50.982;7.032;2023-06-26T02:46:43;21.80;63.67
68177;DHT22;56478;50.982;7.032;2023-06-26T02:49:09;21.77;64.51
68177;DHT22;56478;50.982;7.032;2023-06-26T02:51:34;21.77;65.10
68177;DHT22;56478;50.982;7.032;2023-06-26T02:54:00;21.72;65.33
68177;DHT22;56478;50.982;7.032;2023-06-26T02:56:26;21.73;64.17
68177;DHT22;56478;50.982;7.032;2023-06-26T02:58:57;21.82;64.50
68177;DHT22;56478;50.982;7.032;2023-06-26T03:01:23;21.67;65.15
68177;DHT22;56478;50.982;7.032;2023-06-26T03:03:49;21.62;65.65
68177;DHT22;56478;50.982;7.032;2023-06-26T03:06:15;21.65;65.32
68177;DHT22;56478;50.982;7.032;2023-06-26T03:08:41;21.56;65.49
68177;DHT22;56478;50.982;7.032;2023-06-26T03:11:08;21.58;65.49
68177;DHT22;56478;50.982;7.032;2023-06-26T03:13:34;21.62;65.55
68177;DHT22;56478;50.982;7.032;2023-06-26T03:16:00;21.60;65.11
68177;DHT22;56478;50.982;7.032;2023-06-26T03:18:26;21.59;65.44
68177;DHT22;56478;50.982;7.032;2023-06-26T03:20:53;21.59;65.69
68177;DHT22;56478;50.982;7.032;2023-06-26T03:23:22;21.60;65.72
68177;DHT22;56478;50.982;7.032;2023-06-26T03:25:48;21.66;65.36
68177;DHT22;56478;50.982;7.032;2023-06-26T03:28:14;21.70;65.15
68177;DHT22;56478;50.982;7.032;2023-06-26T03:30:39;21.72;64.90
68177;DHT22;56478;50.982;7.032;2023-06-26T03:33:05;21.76;65.57
68177;DHT22;56478;50.982;7.032;2023-06-26T03:35:31;21.75;65.59
68177;DHT22;56478;50.982;7.032;2023-06-26T03:37:57;21.67;65.36
68177;DHT22;56478;50.982;7.032;2023-06-26T03:40:23;21.72;65.55
68177;DHT22;56478;50.982;7.032;2023-06-26T03:42:48;21.63;66.20
68177;DHT22;56478;50.982;7.032;2023-06-26T03:45:14;21.55;66.07
68177;DHT22;56478;50.982;7.032;2023-06-26T03:47:40;21.55;66.51
68177;DHT22;56478;50.982;7.032;2023-06-26T03:50:05;21.56;66.70
68177;DHT22;56478;50.982;7.032;2023-06-26T03:52:31;21.52;67.42
68177;DHT22;56478;50.982;7.032;2023-06-26T03:54:57;21.56;67.25
68177;DHT22;56478;50.982;7.032;2023-06-26T03:57:23;21.59;66.93
68177;DHT22;56478;50.982;7.032;2023-06-26T03:59:49;21.63;66.76
68177;DHT22;56478;50.982;7.032;2023-06-26T04:02:14;21.75;66.96
68177;DHT22;56478;50.982;7.032;2023-06-26T04:04:40;21.85;66.94
68177;DHT22;56478;50.982;7.032;2023-06-26T04:07:06;22.00;66.80
68177;DHT22;56478;50.982;7.032;2023-06-26T04:09:31;22.10;66.66
68177;DHT22;56478;50.982;7.032;2023-06-26T04:11:57;22.18;66.68
68177;DHT22;56478;50.982;7.032;2023-06-26T04:14:22;22.27;66.98
68177;DHT22;56478;50.982;7.032;2023-06-26T04:16:48;22.29;66.74
68177;DHT22;56478;50.982;7.032;2023-06-26T04:19:13;22.37;66.32
68177;DHT22;56478;50.982;7.032;2023-06-26T04:21:39;22.46;66.08
68177;DHT22;56478;50.982;7.032;2023-06-26T04:24:05;22.57;66.24
68177;DHT22;56478;50.982;7.032;2023-06-26T04:26:31;22.66;64.39
68177;DHT22;56478;50.982;7.032;2023-06-26T04:28:56;22.76;65.19
68177;DHT22;56478;50.982;7.032;2023-06-26T04:31:22;22.83;64.23
68177;DHT22;56478;50.982;7.032;2023-06-26T04:33:48;22.89;64.84
68177;DHT22;56478;50.982;7.032;2023-06-26T04:36:17;22.97;63.59
68177;DHT22;56478;50.982;7.032;2023-06-26T04:38:43;23.01;63.44
68177;DHT22;56478;50.982;7.032;2023-06-26T04:41:08;23.14;63.93
68177;DHT22;56478;50.982;7.032;2023-06-26T04:43:34;23.19;62.70
68177;DHT22;56478;50.982;7.032;2023-06-26T04:45:59;23.22;63.83
68177;DHT22;56478;50.982;7.032;2023-06-26T04:48:25;23.35;63.68
68177;DHT22;56478;50.982;7.032;2023-06-26T04:50:54;23.39;63.10
68177;DHT22;56478;50.982;7.032;2023-06-26T04:53:23;23.52;62.63
68177;DHT22;56478;50.982;7.032;2023-06-26T04:55:49;23.42;62.43
68177;DHT22;56478;50.982;7.032;2023-06-26T04:58:15;23.56;62.36
68177;DHT22;56478;50.982;7.032;2023-06-26T05:00:41;23.66;61.53
68177;DHT22;56478;50.982;7.032;2023-06-26T05:03:14;23.63;61.14
68177;DHT22;56478;50.982;7.032;2023-06-26T05:05:40;23.59;62.44
68177;DHT22;56478;50.982;7.032;2023-06-26T05:08:22;23.56;62.92
68177;DHT22;56478;50.982;7.032;2023-06-26T05:10:48;23.45;62.00
68177;DHT22;56478;50.982;7.032;2023-06-26T05:13:14;23.51;60.65
68177;DHT22;56478;50.982;7.032;2023-06-26T05:15:43;23.45;60.42
68177;DHT22;56478;50.982;7.032;2023-06-26T05:18:09;23.52;60.28
68177;DHT22;56478;50.982;7.032;2023-06-26T05:20:36;23.66;59.51
68177;DHT22;56478;50.982;7.032;2023-06-26T05:23:02;23.73;59.38
68177;DHT22;56478;50.982;7.032;2023-06-26T05:25:32;23.53;59.71
68177;DHT22;56478;50.982;7.032;2023-06-26T05:27:59;23.73;59.96
68177;DHT22;56478;50.982;7.032;2023-06-26T05:30:26;23.65;60.04
68177;DHT22;56478;50.982;7.032;2023-06-26T05:32:53;23.81;60.36
68177;DHT22;56478;50.982;7.032;2023-06-26T05:35:20;23.80;60.78
68177;DHT22;56478;50.982;7.032;2023-06-26T05:37:49;23.76;59.54
68177;DHT22;56478;50.982;7.032;2023-06-26T05:40:16;23.76;59.00
68177;DHT22;56478;50.982;7.032;2023-06-26T05:42:42;23.71;59.71
68177;DHT22;56478;50.982;7.032;2023-06-26T05:45:09;23.65;59.75
68177;DHT22;56478;50.982;7.032;2023-06-26T05:47:35;23.71;59.81
68177;DHT22;56478;50.982;7.032;2023-06-26T05:50:01;23.97;58.67
68177;DHT22;56478;50.982;7.032;2023-06-26T05:52:27;23.90;58.60
68177;DHT22;56478;50.982;7.032;2023-06-26T05:54:53;24.05;58.61
68177;DHT22;56478;50.982;7.032;2023-06-26T05:57:20;24.20;57.80
68177;DHT22;56478;50.982;7.032;2023-06-26T05:59:46;24.15;59.33
68177;DHT22;56478;50.982;7.032;2023-06-26T06:02:12;24.14;60.75
68177;DHT22;56478;50.982;7.032;2023-06-26T06:04:38;23.94;59.37
68177;DHT22;56478;50.982;7.032;2023-06-26T06:07:04;23.76;59.87
68177;DHT22;56478;50.982;7.032;2023-06-26T06:09:30;23.66;59.46
68177;DHT22;56478;50.982;7.032;2023-06-26T06:11:56;23.42;60.53
68177;DHT22;56478;50.982;7.032;2023-06-26T06:14:21;23.51;60.17
68177;DHT22;56478;50.982;7.032;2023-06-26T06:16:47;23.67;60.09
68177;DHT22;56478;50.982;7.032;2023-06-26T06:19:12;24.03;59.97
68177;DHT22;56478;50.982;7.032;2023-06-26T06:21:39;24.22;59.36
68177;DHT22;56478;50.982;7.032;2023-06-26T06:24:05;24.14;59.47
68177;DHT22;56478;50.982;7.032;2023-06-26T06:26:32;24.12;59.36
68177;DHT22;56478;50.982;7.032;2023-06-26T06:28:58;24.18;58.65
68177;DHT22;56478;50.982;7.032;2023-06-26T06:31:24;24.39;58.29
68177;DHT22;56478;50.982;7.032;2023-06-26T06:33:49;24.57;58.02
68177;DHT22;56478;50.982;7.032;2023-06-26T06:36:15;24.33;58.64
68177;DHT22;56478;50.982;7.032;2023-06-26T06:38:43;24.17;59.41
68177;DHT22;56478;50.982;7.032;2023-06-26T06:41:09;24.01;59.41
68177;DHT22;56478;50.982;7.032;2023-06-26T06:43:35;23.73;60.37
68177;DHT22;56478;50.982;7.032;2023-06-26T06:46:02;23.73;60.25
68177;DHT22;56478;50.982;7.032;2023-06-26T06:48:27;23.86;60.63
68177;DHT22;56478;50.982;7.032;2023-06-26T06:50:53;24.00;60.29
68177;DHT22;56478;50.982;7.032;2023-06-26T06:53:19;24.21;59.87
68177;DHT22;56478;50.982;7.032;2023-06-26T06:55:49;24.52;58.85
68177;DHT22;56478;50.982;7.032;2023-06-26T06:58:15;24.42;58.61
68177;DHT22;56478;50.982;7.032;2023-06-26T07:00:42;24.72;58.06
68177;DHT22;56478;50.982;7.032;2023-06-26T07:03:08;26.33;53.64
68177;DHT22;56478;50.982;7.032;2023-06-26T07:05:36;27.63;49.88
68177;DHT22;56478;50.982;7.032;2023-06-26T07:08:02;29.09;47.40
68177;DHT22;56478;50.982;7.032;2023-06-26T07:10:28;30.96;43.62
68177;DHT22;56478;50.982;7.032;2023-06-26T07:12:54;31.80;40.90
68177;DHT22;56478;50.982;7.032;2023-06-26T07:15:19;32.21;40.77
68177;DHT22;56478;50.982;7.032;2023-06-26T07:17:45;32.91;39.07
68177;DHT22;56478;50.982;7.032;2023-06-26T07:20:11;33.36;37.89
68177;DHT22;56478;50.982;7.032;2023-06-26T07:22:41;33.87;37.68
68177;DHT22;56478;50.982;7.032;2023-06-26T07:25:07;33.76;37.42
68177;DHT22;56478;50.982;7.032;2023-06-26T07:27:40;33.53;38.17
68177;DHT22;56478;50.982;7.032;2023-06-26T07:30:06;34.00;37.75
68177;DHT22;56478;50.982;7.032;2023-06-26T07:32:36;33.77;37.78
68177;DHT22;56478;50.982;7.032;2023-06-26T07:35:02;34.90;35.93
68177;DHT22;56478;50.982;7.032;2023-06-26T07:37:27;34.97;35.66
68177;DHT22;56478;50.982;7.032;2023-06-26T07:39:53;35.88;34.35
68177;DHT22;56478;50.982;7.032;2023-06-26T07:42:19;35.39;35.29
68177;DHT22;56478;50.982;7.032;2023-06-26T07:44:45;34.76;36.90
68177;DHT22;56478;50.982;7.032;2023-06-26T07:47:11;35.49;35.59
68177;DHT22;56478;50.982;7.032;2023-06-26T07:49:36;36.14;34.36
68177;DHT22;56478;50.982;7.032;2023-06-26T07:52:04;35.74;34.97
68177;DHT22;56478;50.982;7.032;2023-06-26T07:54:30;35.63;34.89
68177;DHT22;56478;50.982;7.032;2023-06-26T07:57:04;36.38;33.86
68177;DHT22;56478;50.982;7.032;2023-06-26T07:59:34;37.85;31.59
68177;DHT22;56478;50.982;7.032;2023-06-26T08:02:00;37.80;31.95
68177;DHT22;56478;50.982;7.032;2023-06-26T08:04:27;37.45;31.86
68177;DHT22;56478;50.982;7.032;2023-06-26T08:06:54;36.92;32.66
68177;DHT22;56478;50.982;7.032;2023-06-26T08:09:22;37.45;32.28
68177;DHT22;56478;50.982;7.032;2023-06-26T08:11:48;37.43;32.10
68177;DHT22;56478;50.982;7.032;2023-06-26T08:14:17;37.14;32.53
68177;DHT22;56478;50.982;7.032;2023-06-26T08:16:43;36.36;33.46
68177;DHT22;56478;50.982;7.032;2023-06-26T08:19:10;37.29;32.75
68177;DHT22;56478;50.982;7.032;2023-06-26T08:21:35;37.39;32.40
68177;DHT22;56478;50.982;7.032;2023-06-26T08:24:01;37.66;33.00
68177;DHT22;56478;50.982;7.032;2023-06-26T08:26:27;37.85;31.89
68177;DHT22;56478;50.982;7.032;2023-06-26T08:28:53;37.58;32.92
68177;DHT22;56478;50.982;7.032;2023-06-26T08:31:19;35.31;36.37
68177;DHT22;56478;50.982;7.032;2023-06-26T08:33:46;33.54;39.82
68177;DHT22;56478;50.982;7.032;2023-06-26T08:36:13;32.84;39.54
68177;DHT22;56478;50.982;7.032;2023-06-26T08:38:39;33.18;39.44
68177;DHT22;56478;50.982;7.032;2023-06-26T08:41:08;31.02;43.25
68177;DHT22;56478;50.982;7.032;2023-06-26T08:43:35;31.36;42.62
68177;DHT22;56478;50.982;7.032;2023-06-26T08:46:00;33.14;39.52
68177;DHT22;56478;50.982;7.032;2023-06-26T08:48:29;34.66;36.70
68177;DHT22;56478;50.982;7.032;2023-06-26T08:50:57;33.12;39.32
68177;DHT22;56478;50.982;7.032;2023-06-26T08:55:52;30.61;43.75
68177;DHT22;56478;50.982;7.032;2023-06-26T08:58:18;30.96;44.56
68177;DHT22;56478;50.982;7.032;2023-06-26T09:00:44;30.25;44.82
68177;DHT22;56478;50.982;7.032;2023-06-26T09:03:10;29.82;45.49
68177;DHT22;56478;50.982;7.032;2023-06-26T09:05:36;30.59;44.86
68177;DHT22;56478;50.982;7.032;2023-06-26T09:08:02;30.04;45.11
68177;DHT22;56478;50.982;7.032;2023-06-26T09:10:29;29.78;45.88
68177;DHT22;56478;50.982;7.032;2023-06-26T09:12:58;29.88;46.27
68177;DHT22;56478;50.982;7.032;2023-06-26T09:15:24;29.87;45.11
68177;DHT22;56478;50.982;7.032;2023-06-26T09:17:50;29.59;46.96
68177;DHT22;56478;50.982;7.032;2023-06-26T09:20:15;29.16;46.97
68177;DHT22;56478;50.982;7.032;2023-06-26T09:22:43;28.55;48.75
68177;DHT22;56478;50.982;7.032;2023-06-26T09:25:12;29.07;46.49
68177;DHT22;56478;50.982;7.032;2023-06-26T09:27:38;31.54;42.57
68177;DHT22;56478;50.982;7.032;2023-06-26T09:30:04;33.43;37.87
68177;DHT22;56478;50.982;7.032;2023-06-26T09:32:34;34.43;36.83
68177;DHT22;56478;50.982;7.032;2023-06-26T09:35:02;33.56;37.93
68177;DHT22;56478;50.982;7.032;2023-06-26T09:37:28;33.94;37.27
68177;DHT22;56478;50.982;7.032;2023-06-26T09:39:53;34.80;36.27
68177;DHT22;56478;50.982;7.032;2023-06-26T09:42:19;35.87;34.62
68177;DHT22;56478;50.982;7.032;2023-06-26T09:44:46;35.81;34.22
68177;DHT22;56478;50.982;7.032;2023-06-26T09:47:16;36.94;33.61
68177;DHT22;56478;50.982;7.032;2023-06-26T09:49:42;36.81;32.61
68177;DHT22;56478;50.982;7.032;2023-06-26T09:52:09;37.07;32.04
68177;DHT22;56478;50.982;7.032;2023-06-26T09:54:34;38.00;31.13
68177;DHT22;56478;50.982;7.032;2023-06-26T09:57:17;37.42;30.63
68177;DHT22;56478;50.982;7.032;2023-06-26T09:59:44;36.35;32.96
68177;DHT22;56478;50.982;7.032;2023-06-26T10:02:11;33.80;35.66
68177;DHT22;56478;50.982;7.032;2023-06-26T10:04:37;35.01;34.29
68177;DHT22;56478;50.982;7.032;2023-06-26T10:07:05;36.14;33.41
68177;DHT22;56478;50.982;7.032;2023-06-26T10:09:31;36.90;32.78
68177;DHT22;56478;50.982;7.032;2023-06-26T10:12:12;37.35;33.76
68177;DHT22;56478;50.982;7.032;2023-06-26T10:14:41;38.53;29.56
68177;DHT22;56478;50.982;7.032;2023-06-26T10:17:09;38.22;29.62
68177;DHT22;56478;50.982;7.032;2023-06-26T10:19:37;38.60;28.21
68177;DHT22;56478;50.982;7.032;2023-06-26T10:22:04;38.77;28.91
68177;DHT22;56478;50.982;7.032;2023-06-26T10:24:33;37.08;29.66
68177;DHT22;56478;50.982;7.032;2023-06-26T10:29:36;34.38;34.19
68177;DHT22;56478;50.982;7.032;2023-06-26T10:32:04;34.32;33.68
68177;DHT22;56478;50.982;7.032;2023-06-26T10:34:30;35.45;31.65
68177;DHT22;56478;50.982;7.032;2023-06-26T10:37:03;33.52;33.13
68177;DHT22;56478;50.982;7.032;2023-06-26T10:39:50;32.46;35.44
68177;DHT22;56478;50.982;7.032;2023-06-26T10:42:17;32.39;37.22
68177;DHT22;56478;50.982;7.032;2023-06-26T10:44:45;33.19;35.16
68177;DHT22;56478;50.982;7.032;2023-06-26T10:47:12;34.90;34.39
68177;DHT22;56478;50.982;7.032;2023-06-26T10:49:46;36.17;33.49
68177;DHT22;56478;50.982;7.032;2023-06-26T10:52:12;36.24;31.73
68177;DHT22;56478;50.982;7.032;2023-06-26T10:54:38;36.11;31.81
68177;DHT22;56478;50.982;7.032;2023-06-26T10:57:04;36.80;30.59
68177;DHT22;56478;50.982;7.032;2023-06-26T10:59:32;36.52;31.39
68177;DHT22;56478;50.982;7.032;2023-06-26T11:02:00;36.98;30.27
68177;DHT22;56478;50.982;7.032;2023-06-26T11:04:36;34.84;31.05
68177;DHT22;56478;50.982;7.032;2023-06-26T11:07:24;34.67;32.91
68177;DHT22;56478;50.982;7.032;2023-06-26T11:12:41;34.77;31.60
68177;DHT22;56478;50.982;7.032;2023-06-26T11:15:13;34.01;33.33
68177;DHT22;56478;50.982;7.032;2023-06-26T11:17:40;33.90;32.31
68177;DHT22;56478;50.982;7.032;2023-06-26T11:20:10;33.87;32.20
68177;DHT22;56478;50.982;7.032;2023-06-26T11:22:37;33.35;33.32
68177;DHT22;56478;50.982;7.032;2023-06-26T11:25:04;32.67;32.92
68177;DHT22;56478;50.982;7.032;2023-06-26T11:27:32;33.18;33.25
68177;DHT22;56478;50.982;7.032;2023-06-26T11:29:58;32.23;33.54
68177;DHT22;56478;50.982;7.032;2023-06-26T11:32:26;31.85;35.83
68177;DHT22;56478;50.982;7.032;2023-06-26T11:34:53;31.43;36.04
68177;DHT22;56478;50.982;7.032;2023-06-26T11:37:20;31.44;34.67
68177;DHT22;56478;50.982;7.032;2023-06-26T11:39:46;31.23;34.72
68177;DHT22;56478;50.982;7.032;2023-06-26T11:42:12;31.60;35.29
68177;DHT22;56478;50.982;7.032;2023-06-26T11:44:41;30.87;37.26
68177;DHT22;56478;50.982;7.032;2023-06-26T11:47:17;30.08;36.60
68177;DHT22;56478;50.982;7.032;2023-06-26T11:49:44;30.22;37.32
68177;DHT22;56478;50.982;7.032;2023-06-26T11:52:10;30.18;37.68
68177;DHT22;56478;50.982;7.032;2023-06-26T11:54:36;30.52;36.48
68177;DHT22;56478;50.982;7.032;2023-06-26T11:57:03;30.39;36.67
68177;DHT22;56478;50.982;7.032;2023-06-26T11:59:39;30.22;36.90
68177;DHT22;56478;50.982;7.032;2023-06-26T12:02:09;30.64;37.38
68177;DHT22;56478;50.982;7.032;2023-06-26T12:04:41;30.57;35.65
68177;DHT22;56478;50.982;7.032;2023-06-26T12:07:08;30.47;37.19
68177;DHT22;56478;50.982;7.032;2023-06-26T12:09:42;30.33;36.00
68177;DHT22;56478;50.982;7.032;2023-06-26T12:12:10;30.32;36.85
68177;DHT22;56478;50.982;7.032;2023-06-26T12:14:36;30.84;37.13
68177;DHT22;56478;50.982;7.032;2023-06-26T12:17:09;30.73;35.61
68177;DHT22;56478;50.982;7.032;2023-06-26T12:19:42;30.50;36.31
68177;DHT22;56478;50.982;7.032;2023-06-26T12:22:08;30.83;36.49
68177;DHT22;56478;50.982;7.032;2023-06-26T12:24:37;30.80;36.32
68177;DHT22;56478;50.982;7.032;2023-06-26T12:27:11;30.19;36.97
68177;DHT22;56478;50.982;7.032;2023-06-26T12:29:41;29.98;37.22
68177;DHT22;56478;50.982;7.032;2023-06-26T12:32:10;30.41;35.75
68177;DHT22;56478;50.982;7.032;2023-06-26T12:34:38;30.66;35.72
68177;DHT22;56478;50.982;7.032;2023-06-26T12:37:11;30.75;37.35
68177;DHT22;56478;50.982;7.032;2023-06-26T12:39:50;30.61;35.68
68177;DHT22;56478;50.982;7.032;2023-06-26T12:42:18;30.63;36.78
68177;DHT22;56478;50.982;7.032;2023-06-26T12:44:44;30.12;36.39
68177;DHT22;56478;50.982;7.032;2023-06-26T12:47:10;29.33;38.13
68177;DHT22;56478;50.982;7.032;2023-06-26T12:49:40;29.18;38.79
68177;DHT22;56478;50.982;7.032;2023-06-26T12:52:14;28.70;38.70
